sensor_id;sensor_type;location;lat;lon;timestamp;P1;durP1;ratioP1;P2;durP2;ratioP2
55655;SDS011;41530;52.382;5.270;2022-11-20T00:01:07;3.08;;;2.30;;
55655;SDS011;41530;52.382;5.270;2022-11-20T00:03:36;3.42;;;2.20;;
55655;SDS011;41530;52.382;5.270;2022-11-20T00:06:03;3.25;;;2.10;;
55655;SDS011;41530;52.382;5.270;2022-11-20T00:08:34;3.28;;;2.10;;
55655;SDS011;41530;52.382;5.270;2022-11-20T00:11:06;2.83;;;2.30;;
55655;SDS011;41530;52.382;5.270;2022-11-20T00:13:40;2.90;;;2.08;;
55655;SDS011;41530;52.382;5.270;2022-11-20T00:16:09;2.63;;;2.10;;
55655;SDS011;41530;52.382;5.270;2022-11-20T00:18:37;2.88;;;2.30;;
55655;SDS011;41530;52.382;5.270;2022-11-20T00:21:07;3.22;;;2.33;;
55655;SDS011;41530;52.382;5.270;2022-11-20T00:23:37;3.80;;;2.58;;
55655;SDS011;41530;52.382;5.270;2022-11-20T00:26:05;2.85;;;2.22;;
55655;SDS011;41530;52.382;5.270;2022-11-20T00:28:33;3.47;;;2.40;;
55655;SDS011;41530;52.382;5.270;2022-11-20T00:31:01;3.67;;;2.45;;
55655;SDS011;41530;52.382;5.270;2022-11-20T00:33:29;2.92;;;2.53;;
55655;SDS011;41530;52.382;5.270;2022-11-20T00:36:00;3.05;;;2.55;;
55655;SDS011;41530;52.382;5.270;2022-11-20T00:38:32;3.47;;;2.50;;
55655;SDS011;41530;52.382;5.270;2022-11-20T00:41:00;3.08;;;2.40;;
55655;SDS011;41530;52.382;5.270;2022-11-20T00:43:30;4.38;;;2.58;;
55655;SDS011;41530;52.382;5.270;2022-11-20T00:45:58;2.63;;;2.22;;
55655;SDS011;41530;52.382;5.270;2022-11-20T00:48:28;3.65;;;2.50;;
55655;SDS011;41530;52.382;5.270;2022-11-20T00:50:56;4.03;;;2.50;;
55655;SDS011;41530;52.382;5.270;2022-11-20T00:53:23;4.32;;;2.40;;
55655;SDS011;41530;52.382;5.270;2022-11-20T00:55:54;4.20;;;2.47;;
55655;SDS011;41530;52.382;5.270;2022-11-20T00:58:28;3.83;;;2.70;;
55655;SDS011;41530;52.382;5.270;2022-11-20T01:00:59;4.53;;;2.75;;
55655;SDS011;41530;52.382;5.270;2022-11-20T01:03:30;3.53;;;2.42;;
55655;SDS011;41530;52.382;5.270;2022-11-20T01:06:12;3.97;;;2.47;;
55655;SDS011;41530;52.382;5.270;2022-11-20T01:08:41;4.22;;;2.75;;
55655;SDS011;41530;52.382;5.270;2022-11-20T01:11:10;2.80;;;2.30;;
55655;SDS011;41530;52.382;5.270;2022-11-20T01:13:39;4.05;;;2.65;;
55655;SDS011;41530;52.382;5.270;2022-11-20T01:16:11;3.13;;;2.47;;
55655;SDS011;41530;52.382;5.270;2022-11-20T01:18:46;3.60;;;2.67;;
55655;SDS011;41530;52.382;5.270;2022-11-20T01:21:20;4.25;;;2.65;;
55655;SDS011;41530;52.382;5.270;2022-11-20T01:24:06;2.45;;;2.25;;
55655;SDS011;41530;52.382;5.270;2022-11-20T01:26:35;3.03;;;2.45;;
55655;SDS011;41530;52.382;5.270;2022-11-20T01:29:04;3.70;;;2.67;;
55655;SDS011;41530;52.382;5.270;2022-11-20T01:31:33;2.75;;;2.08;;
55655;SDS011;41530;52.382;5.270;2022-11-20T01:34:02;2.80;;;2.42;;
55655;SDS011;41530;52.382;5.270;2022-11-20T01:36:35;3.28;;;2.40;;
55655;SDS011;41530;52.382;5.270;2022-11-20T01:39:04;3.22;;;2.53;;
55655;SDS011;41530;52.382;5.270;2022-11-20T01:41:32;3.42;;;2.53;;
55655;SDS011;41530;52.382;5.270;2022-11-20T01:44:20;3.97;;;2.88;;
55655;SDS011;41530;52.382;5.270;2022-11-20T01:47:02;4.10;;;2.83;;
55655;SDS011;41530;52.382;5.270;2022-11-20T01:52:04;4.13;;;2.85;;
55655;SDS011;41530;52.382;5.270;2022-11-20T01:54:58;4.20;;;2.90;;
55655;SDS011;41530;52.382;5.270;2022-11-20T01:57:30;4.57;;;2.85;;
55655;SDS011;41530;52.382;5.270;2022-11-20T02:00:05;3.95;;;2.85;;
55655;SDS011;41530;52.382;5.270;2022-11-20T02:02:34;3.85;;;2.85;;
55655;SDS011;41530;52.382;5.270;2022-11-20T02:05:04;4.22;;;3.17;;
55655;SDS011;41530;52.382;5.270;2022-11-20T02:07:45;4.07;;;2.90;;
55655;SDS011;41530;52.382;5.270;2022-11-20T02:10:12;3.30;;;2.55;;
55655;SDS011;41530;52.382;5.270;2022-11-20T02:12:39;3.53;;;2.70;;
55655;SDS011;41530;52.382;5.270;2022-11-20T02:15:24;3.85;;;2.83;;
55655;SDS011;41530;52.382;5.270;2022-11-20T02:17:55;3.60;;;2.97;;
55655;SDS011;41530;52.382;5.270;2022-11-20T02:20:22;4.65;;;3.10;;
55655;SDS011;41530;52.382;5.270;2022-11-20T02:22:56;4.15;;;2.65;;
55655;SDS011;41530;52.382;5.270;2022-11-20T02:25:27;3.58;;;2.67;;
55655;SDS011;41530;52.382;5.270;2022-11-20T02:27:56;4.25;;;2.65;;
55655;SDS011;41530;52.382;5.270;2022-11-20T02:30:23;3.42;;;2.58;;
55655;SDS011;41530;52.382;5.270;2022-11-20T02:32:50;4.20;;;3.03;;
55655;SDS011;41530;52.382;5.270;2022-11-20T02:37:47;3.45;;;2.60;;
55655;SDS011;41530;52.382;5.270;2022-11-20T02:40:16;3.85;;;2.80;;
55655;SDS011;41530;52.382;5.270;2022-11-20T02:42:43;3.58;;;3.00;;
55655;SDS011;41530;52.382;5.270;2022-11-20T02:45:10;3.55;;;2.50;;
55655;SDS011;41530;52.382;5.270;2022-11-20T02:47:38;4.07;;;3.00;;
55655;SDS011;41530;52.382;5.270;2022-11-20T02:50:05;5.00;;;2.92;;
55655;SDS011;41530;52.382;5.270;2022-11-20T02:52:32;4.43;;;2.53;;
55655;SDS011;41530;52.382;5.270;2022-11-20T02:54:59;3.95;;;2.90;;
55655;SDS011;41530;52.382;5.270;2022-11-20T02:57:26;3.38;;;2.70;;
55655;SDS011;41530;52.382;5.270;2022-11-20T02:59:53;4.95;;;3.08;;
55655;SDS011;41530;52.382;5.270;2022-11-20T03:02:20;5.97;;;3.03;;
55655;SDS011;41530;52.382;5.270;2022-11-20T03:04:47;5.88;;;2.97;;
55655;SDS011;41530;52.382;5.270;2022-11-20T03:07:14;2.90;;;2.45;;
55655;SDS011;41530;52.382;5.270;2022-11-20T03:09:40;4.20;;;3.03;;
55655;SDS011;41530;52.382;5.270;2022-11-20T03:12:07;4.07;;;2.80;;
55655;SDS011;41530;52.382;5.270;2022-11-20T03:14:34;5.07;;;3.08;;
55655;SDS011;41530;52.382;5.270;2022-11-20T03:17:01;4.07;;;2.80;;
55655;SDS011;41530;52.382;5.270;2022-11-20T03:19:27;2.47;;;2.22;;
55655;SDS011;41530;52.382;5.270;2022-11-20T03:21:54;3.67;;;2.67;;
55655;SDS011;41530;52.382;5.270;2022-11-20T03:24:21;3.55;;;2.67;;
55655;SDS011;41530;52.382;5.270;2022-11-20T03:26:47;3.80;;;2.42;;
55655;SDS011;41530;52.382;5.270;2022-11-20T03:29:15;2.65;;;2.40;;
55655;SDS011;41530;52.382;5.270;2022-11-20T03:31:41;3.90;;;2.38;;
55655;SDS011;41530;52.382;5.270;2022-11-20T03:34:09;3.38;;;2.55;;
55655;SDS011;41530;52.382;5.270;2022-11-20T03:36:40;3.60;;;2.22;;
55655;SDS011;41530;52.382;5.270;2022-11-20T03:39:11;3.50;;;2.40;;
55655;SDS011;41530;52.382;5.270;2022-11-20T03:41:39;3.47;;;2.60;;
55655;SDS011;41530;52.382;5.270;2022-11-20T03:44:07;3.10;;;2.30;;
55655;SDS011;41530;52.382;5.270;2022-11-20T03:46:36;2.53;;;2.22;;
55655;SDS011;41530;52.382;5.270;2022-11-20T03:49:03;3.60;;;2.80;;
55655;SDS011;41530;52.382;5.270;2022-11-20T03:51:31;4.63;;;2.70;;
55655;SDS011;41530;52.382;5.270;2022-11-20T03:54:00;2.70;;;2.35;;
55655;SDS011;41530;52.382;5.270;2022-11-20T03:56:29;3.40;;;2.50;;
55655;SDS011;41530;52.382;5.270;2022-11-20T03:58:58;3.45;;;2.60;;
55655;SDS011;41530;52.382;5.270;2022-11-20T04:01:29;3.88;;;2.47;;
55655;SDS011;41530;52.382;5.270;2022-11-20T04:03:58;4.30;;;2.75;;
55655;SDS011;41530;52.382;5.270;2022-11-20T04:06:26;3.38;;;2.53;;
55655;SDS011;41530;52.382;5.270;2022-11-20T04:08:54;3.22;;;2.60;;
55655;SDS011;41530;52.382;5.270;2022-11-20T04:11:24;3.63;;;2.30;;
55655;SDS011;41530;52.382;5.270;2022-11-20T04:13:53;3.83;;;2.67;;
55655;SDS011;41530;52.382;5.270;2022-11-20T04:16:22;3.35;;;2.38;;
55655;SDS011;41530;52.382;5.270;2022-11-20T04:18:54;3.38;;;2.55;;
55655;SDS011;41530;52.382;5.270;2022-11-20T04:21:26;3.83;;;2.77;;
55655;SDS011;41530;52.382;5.270;2022-11-20T04:23:53;4.43;;;2.20;;
55655;SDS011;41530;52.382;5.270;2022-11-20T04:26:23;3.08;;;2.10;;
55655;SDS011;41530;52.382;5.270;2022-11-20T04:28:51;2.72;;;2.10;;
55655;SDS011;41530;52.382;5.270;2022-11-20T04:31:20;2.15;;;1.95;;
55655;SDS011;41530;52.382;5.270;2022-11-20T04:33:49;3.50;;;2.28;;
55655;SDS011;41530;52.382;5.270;2022-11-20T04:36:18;2.58;;;2.20;;
55655;SDS011;41530;52.382;5.270;2022-11-20T04:38:49;3.70;;;2.08;;
55655;SDS011;41530;52.382;5.270;2022-11-20T04:41:23;3.10;;;2.10;;
55655;SDS011;41530;52.382;5.270;2022-11-20T04:43:52;4.40;;;1.98;;
55655;SDS011;41530;52.382;5.270;2022-11-20T04:46:25;2.70;;;2.25;;
55655;SDS011;41530;52.382;5.270;2022-11-20T04:48:53;2.97;;;2.30;;
55655;SDS011;41530;52.382;5.270;2022-11-20T04:51:20;3.83;;;2.53;;
55655;SDS011;41530;52.382;5.270;2022-11-20T04:53:47;3.72;;;2.15;;
55655;SDS011;41530;52.382;5.270;2022-11-20T04:56:14;2.97;;;2.08;;
55655;SDS011;41530;52.382;5.270;2022-11-20T04:58:41;4.43;;;2.40;;
55655;SDS011;41530;52.382;5.270;2022-11-20T05:01:17;4.28;;;1.90;;
55655;SDS011;41530;52.382;5.270;2022-11-20T05:03:49;2.85;;;1.92;;
55655;SDS011;41530;52.382;5.270;2022-11-20T05:06:17;2.85;;;2.35;;
55655;SDS011;41530;52.382;5.270;2022-11-20T05:08:46;2.65;;;2.28;;
55655;SDS011;41530;52.382;5.270;2022-11-20T05:11:15;3.65;;;2.63;;
55655;SDS011;41530;52.382;5.270;2022-11-20T05:13:44;3.03;;;2.00;;
55655;SDS011;41530;52.382;5.270;2022-11-20T05:16:21;2.03;;;1.73;;
55655;SDS011;41530;52.382;5.270;2022-11-20T05:18:52;2.55;;;2.10;;
55655;SDS011;41530;52.382;5.270;2022-11-20T05:21:20;2.85;;;2.00;;
55655;SDS011;41530;52.382;5.270;2022-11-20T05:23:49;3.45;;;2.13;;
55655;SDS011;41530;52.382;5.270;2022-11-20T05:26:17;2.05;;;1.85;;
55655;SDS011;41530;52.382;5.270;2022-11-20T05:28:46;2.42;;;1.92;;
55655;SDS011;41530;52.382;5.270;2022-11-20T05:31:15;2.55;;;2.00;;
55655;SDS011;41530;52.382;5.270;2022-11-20T05:33:53;2.17;;;1.63;;
55655;SDS011;41530;52.382;5.270;2022-11-20T05:36:22;2.65;;;1.90;;
55655;SDS011;41530;52.382;5.270;2022-11-20T05:38:50;2.50;;;1.90;;
55655;SDS011;41530;52.382;5.270;2022-11-20T05:41:25;2.93;;;2.17;;
55655;SDS011;41530;52.382;5.270;2022-11-20T05:43:52;2.85;;;2.17;;
55655;SDS011;41530;52.382;5.270;2022-11-20T05:46:20;3.55;;;2.15;;
55655;SDS011;41530;52.382;5.270;2022-11-20T05:48:54;3.30;;;2.13;;
55655;SDS011;41530;52.382;5.270;2022-11-20T05:51:21;3.25;;;2.03;;
55655;SDS011;41530;52.382;5.270;2022-11-20T05:53:48;2.47;;;2.00;;
55655;SDS011;41530;52.382;5.270;2022-11-20T05:56:16;2.20;;;1.88;;
55655;SDS011;41530;52.382;5.270;2022-11-20T05:58:44;2.47;;;2.00;;
55655;SDS011;41530;52.382;5.270;2022-11-20T06:01:16;2.28;;;1.80;;
55655;SDS011;41530;52.382;5.270;2022-11-20T06:03:45;3.42;;;2.17;;
55655;SDS011;41530;52.382;5.270;2022-11-20T06:06:14;2.78;;;2.08;;
55655;SDS011;41530;52.382;5.270;2022-11-20T06:08:42;1.80;;;1.70;;
55655;SDS011;41530;52.382;5.270;2022-11-20T06:11:10;2.90;;;2.17;;
55655;SDS011;41530;52.382;5.270;2022-11-20T06:13:38;2.80;;;2.10;;
55655;SDS011;41530;52.382;5.270;2022-11-20T06:16:07;2.15;;;1.80;;
55655;SDS011;41530;52.382;5.270;2022-11-20T06:18:34;3.25;;;1.80;;
55655;SDS011;41530;52.382;5.270;2022-11-20T06:21:14;2.40;;;1.85;;
55655;SDS011;41530;52.382;5.270;2022-11-20T06:23:42;2.38;;;1.80;;
55655;SDS011;41530;52.382;5.270;2022-11-20T06:26:12;2.67;;;1.92;;
55655;SDS011;41530;52.382;5.270;2022-11-20T06:28:40;2.60;;;1.67;;
55655;SDS011;41530;52.382;5.270;2022-11-20T06:31:09;2.08;;;1.40;;
55655;SDS011;41530;52.382;5.270;2022-11-20T06:33:37;2.15;;;1.73;;
55655;SDS011;41530;52.382;5.270;2022-11-20T06:36:04;2.20;;;1.90;;
55655;SDS011;41530;52.382;5.270;2022-11-20T06:38:36;1.90;;;1.67;;
55655;SDS011;41530;52.382;5.270;2022-11-20T06:41:03;2.65;;;1.90;;
55655;SDS011;41530;52.382;5.270;2022-11-20T06:43:31;1.77;;;1.60;;
55655;SDS011;41530;52.382;5.270;2022-11-20T06:45:58;2.40;;;1.60;;
55655;SDS011;41530;52.382;5.270;2022-11-20T06:48:25;3.17;;;1.80;;
55655;SDS011;41530;52.382;5.270;2022-11-20T06:50:53;2.42;;;1.75;;
55655;SDS011;41530;52.382;5.270;2022-11-20T06:53:19;2.05;;;1.83;;
55655;SDS011;41530;52.382;5.270;2022-11-20T06:55:47;2.83;;;1.80;;
55655;SDS011;41530;52.382;5.270;2022-11-20T06:58:15;1.85;;;1.75;;
55655;SDS011;41530;52.382;5.270;2022-11-20T07:00:42;2.00;;;1.80;;
55655;SDS011;41530;52.382;5.270;2022-11-20T07:03:10;3.38;;;2.08;;
55655;SDS011;41530;52.382;5.270;2022-11-20T07:05:38;2.50;;;2.00;;
55655;SDS011;41530;52.382;5.270;2022-11-20T07:08:06;2.35;;;2.13;;
55655;SDS011;41530;52.382;5.270;2022-11-20T07:10:33;2.28;;;1.90;;
55655;SDS011;41530;52.382;5.270;2022-11-20T07:12:59;2.05;;;1.77;;
55655;SDS011;41530;52.382;5.270;2022-11-20T07:15:26;2.25;;;1.90;;
55655;SDS011;41530;52.382;5.270;2022-11-20T07:17:53;2.17;;;1.75;;
55655;SDS011;41530;52.382;5.270;2022-11-20T07:20:20;2.40;;;1.90;;
55655;SDS011;41530;52.382;5.270;2022-11-20T07:22:52;3.72;;;1.95;;
55655;SDS011;41530;52.382;5.270;2022-11-20T07:25:20;2.63;;;1.75;;
55655;SDS011;41530;52.382;5.270;2022-11-20T07:27:47;2.10;;;1.90;;
55655;SDS011;41530;52.382;5.270;2022-11-20T07:30:17;6.15;;;2.20;;
55655;SDS011;41530;52.382;5.270;2022-11-20T07:32:47;2.78;;;1.95;;
55655;SDS011;41530;52.382;5.270;2022-11-20T07:35:18;2.55;;;2.15;;
55655;SDS011;41530;52.382;5.270;2022-11-20T07:37:45;2.25;;;2.05;;
55655;SDS011;41530;52.382;5.270;2022-11-20T07:40:12;2.28;;;1.90;;
55655;SDS011;41530;52.382;5.270;2022-11-20T07:42:46;2.13;;;1.90;;
55655;SDS011;41530;52.382;5.270;2022-11-20T07:45:18;2.00;;;1.73;;
55655;SDS011;41530;52.382;5.270;2022-11-20T07:47:45;2.80;;;2.10;;
55655;SDS011;41530;52.382;5.270;2022-11-20T07:50:12;3.58;;;2.20;;
55655;SDS011;41530;52.382;5.270;2022-11-20T07:52:39;3.28;;;2.40;;
55655;SDS011;41530;52.382;5.270;2022-11-20T07:55:06;2.55;;;2.00;;
55655;SDS011;41530;52.382;5.270;2022-11-20T07:57:34;3.00;;;2.25;;
55655;SDS011;41530;52.382;5.270;2022-11-20T08:00:03;3.13;;;2.40;;
55655;SDS011;41530;52.382;5.270;2022-11-20T08:02:31;3.08;;;2.33;;
55655;SDS011;41530;52.382;5.270;2022-11-20T08:04:58;3.78;;;2.60;;
55655;SDS011;41530;52.382;5.270;2022-11-20T08:07:24;3.35;;;2.60;;
55655;SDS011;41530;52.382;5.270;2022-11-20T08:09:52;2.60;;;2.13;;
55655;SDS011;41530;52.382;5.270;2022-11-20T08:12:19;3.65;;;2.50;;
55655;SDS011;41530;52.382;5.270;2022-11-20T08:15:06;3.30;;;2.40;;
55655;SDS011;41530;52.382;5.270;2022-11-20T08:17:38;4.38;;;2.47;;
55655;SDS011;41530;52.382;5.270;2022-11-20T08:20:05;3.15;;;2.63;;
55655;SDS011;41530;52.382;5.270;2022-11-20T08:22:32;3.78;;;2.55;;
55655;SDS011;41530;52.382;5.270;2022-11-20T08:24:58;4.78;;;2.60;;
55655;SDS011;41530;52.382;5.270;2022-11-20T08:27:25;2.83;;;2.10;;
55655;SDS011;41530;52.382;5.270;2022-11-20T08:29:52;2.97;;;2.28;;
55655;SDS011;41530;52.382;5.270;2022-11-20T08:32:18;3.05;;;2.42;;
55655;SDS011;41530;52.382;5.270;2022-11-20T08:34:45;3.35;;;2.38;;
55655;SDS011;41530;52.382;5.270;2022-11-20T08:37:12;3.80;;;2.70;;
55655;SDS011;41530;52.382;5.270;2022-11-20T08:39:39;4.53;;;2.70;;
55655;SDS011;41530;52.382;5.270;2022-11-20T08:42:08;3.78;;;2.60;;
55655;SDS011;41530;52.382;5.270;2022-11-20T08:44:34;3.42;;;2.35;;
55655;SDS011;41530;52.382;5.270;2022-11-20T08:47:01;2.65;;;2.30;;
55655;SDS011;41530;52.382;5.270;2022-11-20T08:49:28;4.45;;;2.63;;
55655;SDS011;41530;52.382;5.270;2022-11-20T08:51:56;3.90;;;2.95;;
55655;SDS011;41530;52.382;5.270;2022-11-20T08:54:23;3.67;;;2.75;;
55655;SDS011;41530;52.382;5.270;2022-11-20T08:56:49;5.45;;;3.42;;
55655;SDS011;41530;52.382;5.270;2022-11-20T08:59:16;6.97;;;3.38;;
55655;SDS011;41530;52.382;5.270;2022-11-20T09:02:02;6.70;;;4.00;;
55655;SDS011;41530;52.382;5.270;2022-11-20T09:04:29;14.40;;;4.78;;
55655;SDS011;41530;52.382;5.270;2022-11-20T09:06:55;16.35;;;5.80;;
55655;SDS011;41530;52.382;5.270;2022-11-20T09:09:22;14.57;;;5.40;;
55655;SDS011;41530;52.382;5.270;2022-11-20T09:11:50;21.02;;;6.10;;
55655;SDS011;41530;52.382;5.270;2022-11-20T09:14:16;20.15;;;6.07;;
55655;SDS011;41530;52.382;5.270;2022-11-20T09:16:44;16.45;;;5.78;;
55655;SDS011;41530;52.382;5.270;2022-11-20T09:19:11;19.33;;;6.18;;
55655;SDS011;41530;52.382;5.270;2022-11-20T09:21:58;21.35;;;6.15;;
55655;SDS011;41530;52.382;5.270;2022-11-20T09:24:26;20.65;;;6.13;;
55655;SDS011;41530;52.382;5.270;2022-11-20T09:26:54;14.93;;;6.03;;
55655;SDS011;41530;52.382;5.270;2022-11-20T09:29:20;12.60;;;6.05;;
55655;SDS011;41530;52.382;5.270;2022-11-20T09:31:48;22.23;;;6.28;;
55655;SDS011;41530;52.382;5.270;2022-11-20T09:34:14;15.75;;;6.32;;
55655;SDS011;41530;52.382;5.270;2022-11-20T09:36:41;16.83;;;6.07;;
55655;SDS011;41530;52.382;5.270;2022-11-20T09:39:08;11.63;;;5.70;;
55655;SDS011;41530;52.382;5.270;2022-11-20T09:44:29;18.23;;;5.93;;
55655;SDS011;41530;52.382;5.270;2022-11-20T09:55:10;17.40;;;5.38;;
55655;SDS011;41530;52.382;5.270;2022-11-20T09:57:40;16.15;;;5.60;;
55655;SDS011;41530;52.382;5.270;2022-11-20T10:00:12;14.70;;;5.20;;
55655;SDS011;41530;52.382;5.270;2022-11-20T10:02:42;10.32;;;4.90;;
55655;SDS011;41530;52.382;5.270;2022-11-20T10:05:18;11.90;;;5.00;;
55655;SDS011;41530;52.382;5.270;2022-11-20T10:07:48;12.13;;;5.25;;
55655;SDS011;41530;52.382;5.270;2022-11-20T10:10:30;11.30;;;5.13;;
55655;SDS011;41530;52.382;5.270;2022-11-20T10:15:55;10.55;;;4.45;;
55655;SDS011;41530;52.382;5.270;2022-11-20T10:27:01;11.63;;;4.90;;
55655;SDS011;41530;52.382;5.270;2022-11-20T10:29:54;11.27;;;4.50;;
55655;SDS011;41530;52.382;5.270;2022-11-20T10:32:38;9.77;;;4.65;;
55655;SDS011;41530;52.382;5.270;2022-11-20T10:35:18;9.05;;;4.47;;
55655;SDS011;41530;52.382;5.270;2022-11-20T10:37:50;10.50;;;4.78;;
55655;SDS011;41530;52.382;5.270;2022-11-20T10:40:38;8.00;;;4.28;;
55655;SDS011;41530;52.382;5.270;2022-11-20T10:43:12;8.43;;;3.90;;
55655;SDS011;41530;52.382;5.270;2022-11-20T10:45:45;10.07;;;4.13;;
55655;SDS011;41530;52.382;5.270;2022-11-20T10:48:24;9.73;;;4.05;;
55655;SDS011;41530;52.382;5.270;2022-11-20T10:50:58;7.50;;;3.95;;
55655;SDS011;41530;52.382;5.270;2022-11-20T10:56:35;7.22;;;3.75;;
55655;SDS011;41530;52.382;5.270;2022-11-20T10:59:32;6.53;;;4.22;;
55655;SDS011;41530;52.382;5.270;2022-11-20T11:02:14;7.68;;;3.42;;
55655;SDS011;41530;52.382;5.270;2022-11-20T11:04:52;8.80;;;4.60;;
55655;SDS011;41530;52.382;5.270;2022-11-20T11:07:38;8.82;;;3.95;;
55655;SDS011;41530;52.382;5.270;2022-11-20T11:12:43;7.45;;;3.80;;
55655;SDS011;41530;52.382;5.270;2022-11-20T11:15:24;8.15;;;3.70;;
55655;SDS011;41530;52.382;5.270;2022-11-20T11:17:53;4.72;;;3.15;;
55655;SDS011;41530;52.382;5.270;2022-11-20T11:20:21;8.13;;;3.47;;
55655;SDS011;41530;52.382;5.270;2022-11-20T11:22:53;9.52;;;3.70;;
55655;SDS011;41530;52.382;5.270;2022-11-20T11:25:26;9.38;;;4.13;;
55655;SDS011;41530;52.382;5.270;2022-11-20T11:27:53;7.18;;;4.32;;
55655;SDS011;41530;52.382;5.270;2022-11-20T11:30:22;4.97;;;3.70;;
55655;SDS011;41530;52.382;5.270;2022-11-20T11:32:50;6.53;;;3.97;;
55655;SDS011;41530;52.382;5.270;2022-11-20T11:35:28;8.77;;;4.00;;
55655;SDS011;41530;52.382;5.270;2022-11-20T11:38:02;7.35;;;3.63;;
55655;SDS011;41530;52.382;5.270;2022-11-20T11:40:34;6.60;;;4.45;;
55655;SDS011;41530;52.382;5.270;2022-11-20T11:43:15;5.00;;;3.53;;
55655;SDS011;41530;52.382;5.270;2022-11-20T11:46:04;6.72;;;4.00;;
55655;SDS011;41530;52.382;5.270;2022-11-20T11:54:35;7.97;;;3.72;;
55655;SDS011;41530;52.382;5.270;2022-11-20T11:57:12;7.47;;;3.47;;
55655;SDS011;41530;52.382;5.270;2022-11-20T12:05:21;8.02;;;4.15;;
55655;SDS011;41530;52.382;5.270;2022-11-20T12:08:10;6.55;;;3.42;;
55655;SDS011;41530;52.382;5.270;2022-11-20T12:15:58;6.22;;;3.85;;
55655;SDS011;41530;52.382;5.270;2022-11-20T12:18:26;5.00;;;3.40;;
55655;SDS011;41530;52.382;5.270;2022-11-20T12:34:20;5.20;;;3.80;;
55655;SDS011;41530;52.382;5.270;2022-11-20T12:49:13;5.32;;;3.35;;
55655;SDS011;41530;52.382;5.270;2022-11-20T12:51:48;8.10;;;3.78;;
55655;SDS011;41530;52.382;5.270;2022-11-20T13:00:08;6.22;;;4.40;;
55655;SDS011;41530;52.382;5.270;2022-11-20T13:10:49;5.20;;;3.83;;
55655;SDS011;41530;52.382;5.270;2022-11-20T13:18:27;6.15;;;4.30;;
55655;SDS011;41530;52.382;5.270;2022-11-20T13:20:54;7.03;;;4.35;;
55655;SDS011;41530;52.382;5.270;2022-11-20T13:23:25;5.88;;;3.95;;
55655;SDS011;41530;52.382;5.270;2022-11-20T13:26:04;5.05;;;3.78;;
55655;SDS011;41530;52.382;5.270;2022-11-20T13:28:45;6.10;;;3.95;;
55655;SDS011;41530;52.382;5.270;2022-11-20T13:31:32;5.38;;;3.53;;
55655;SDS011;41530;52.382;5.270;2022-11-20T13:34:02;6.72;;;3.70;;
55655;SDS011;41530;52.382;5.270;2022-11-20T13:36:31;5.63;;;4.28;;
55655;SDS011;41530;52.382;5.270;2022-11-20T13:38:58;7.10;;;3.97;;
55655;SDS011;41530;52.382;5.270;2022-11-20T13:41:29;6.75;;;3.92;;
55655;SDS011;41530;52.382;5.270;2022-11-20T13:44:14;6.88;;;4.63;;
55655;SDS011;41530;52.382;5.270;2022-11-20T13:46:50;7.00;;;4.32;;
55655;SDS011;41530;52.382;5.270;2022-11-20T13:49:30;5.40;;;3.78;;
55655;SDS011;41530;52.382;5.270;2022-11-20T13:52:25;5.30;;;3.47;;
55655;SDS011;41530;52.382;5.270;2022-11-20T13:57:54;4.93;;;3.50;;
55655;SDS011;41530;52.382;5.270;2022-11-20T14:00:44;5.38;;;3.92;;
55655;SDS011;41530;52.382;5.270;2022-11-20T14:03:24;7.45;;;3.83;;
55655;SDS011;41530;52.382;5.270;2022-11-20T14:06:14;5.60;;;3.53;;
55655;SDS011;41530;52.382;5.270;2022-11-20T14:08:52;7.40;;;3.90;;
55655;SDS011;41530;52.382;5.270;2022-11-20T14:11:20;5.40;;;3.58;;
55655;SDS011;41530;52.382;5.270;2022-11-20T14:13:57;7.38;;;3.88;;
55655;SDS011;41530;52.382;5.270;2022-11-20T14:16:39;9.02;;;3.60;;
55655;SDS011;41530;52.382;5.270;2022-11-20T14:21:48;5.35;;;3.70;;
55655;SDS011;41530;52.382;5.270;2022-11-20T14:24:21;4.32;;;3.67;;
55655;SDS011;41530;52.382;5.270;2022-11-20T14:26:50;5.60;;;3.80;;
55655;SDS011;41530;52.382;5.270;2022-11-20T14:29:22;6.13;;;3.30;;
55655;SDS011;41530;52.382;5.270;2022-11-20T14:31:54;6.93;;;3.38;;
55655;SDS011;41530;52.382;5.270;2022-11-20T14:34:24;6.55;;;3.72;;
55655;SDS011;41530;52.382;5.270;2022-11-20T14:36:56;5.32;;;3.50;;
55655;SDS011;41530;52.382;5.270;2022-11-20T14:39:37;4.82;;;3.67;;
55655;SDS011;41530;52.382;5.270;2022-11-20T14:42:23;5.93;;;3.88;;
55655;SDS011;41530;52.382;5.270;2022-11-20T14:44:52;5.78;;;3.50;;
55655;SDS011;41530;52.382;5.270;2022-11-20T14:47:24;4.28;;;3.22;;
55655;SDS011;41530;52.382;5.270;2022-11-20T14:49:53;3.88;;;3.17;;
55655;SDS011;41530;52.382;5.270;2022-11-20T14:52:22;5.97;;;3.70;;
55655;SDS011;41530;52.382;5.270;2022-11-20T14:54:52;4.30;;;3.40;;
55655;SDS011;41530;52.382;5.270;2022-11-20T14:57:21;5.28;;;3.70;;
55655;SDS011;41530;52.382;5.270;2022-11-20T15:02:41;3.90;;;3.22;;
55655;SDS011;41530;52.382;5.270;2022-11-20T15:05:09;5.82;;;3.25;;
55655;SDS011;41530;52.382;5.270;2022-11-20T15:07:37;4.82;;;3.47;;
55655;SDS011;41530;52.382;5.270;2022-11-20T15:10:10;4.47;;;3.05;;
55655;SDS011;41530;52.382;5.270;2022-11-20T15:12:50;4.35;;;3.30;;
55655;SDS011;41530;52.382;5.270;2022-11-20T15:15:29;4.55;;;3.25;;
55655;SDS011;41530;52.382;5.270;2022-11-20T15:17:59;4.30;;;3.10;;
55655;SDS011;41530;52.382;5.270;2022-11-20T15:20:30;6.15;;;3.72;;
55655;SDS011;41530;52.382;5.270;2022-11-20T15:22:58;5.28;;;3.50;;
55655;SDS011;41530;52.382;5.270;2022-11-20T15:25:25;5.75;;;3.60;;
55655;SDS011;41530;52.382;5.270;2022-11-20T15:27:53;4.95;;;3.60;;
55655;SDS011;41530;52.382;5.270;2022-11-20T15:30:22;6.75;;;4.13;;
55655;SDS011;41530;52.382;5.270;2022-11-20T15:32:50;5.03;;;3.63;;
55655;SDS011;41530;52.382;5.270;2022-11-20T15:35:16;7.55;;;3.65;;
55655;SDS011;41530;52.382;5.270;2022-11-20T15:37:43;4.85;;;3.47;;
55655;SDS011;41530;52.382;5.270;2022-11-20T15:40:10;3.30;;;2.90;;
55655;SDS011;41530;52.382;5.270;2022-11-20T15:42:37;5.00;;;3.55;;
55655;SDS011;41530;52.382;5.270;2022-11-20T15:45:03;5.28;;;3.30;;
55655;SDS011;41530;52.382;5.270;2022-11-20T15:47:31;6.63;;;3.53;;
55655;SDS011;41530;52.382;5.270;2022-11-20T15:50:00;6.93;;;3.10;;
55655;SDS011;41530;52.382;5.270;2022-11-20T15:52:27;5.88;;;3.50;;
55655;SDS011;41530;52.382;5.270;2022-11-20T15:55:09;4.65;;;2.92;;
55655;SDS011;41530;52.382;5.270;2022-11-20T15:57:36;5.18;;;3.55;;
55655;SDS011;41530;52.382;5.270;2022-11-20T16:00:03;4.63;;;3.00;;
55655;SDS011;41530;52.382;5.270;2022-11-20T16:02:30;5.28;;;3.40;;
55655;SDS011;41530;52.382;5.270;2022-11-20T16:04:57;3.97;;;2.90;;
55655;SDS011;41530;52.382;5.270;2022-11-20T16:07:23;5.80;;;3.20;;
55655;SDS011;41530;52.382;5.270;2022-11-20T16:09:50;4.30;;;3.47;;
55655;SDS011;41530;52.382;5.270;2022-11-20T16:12:17;4.03;;;2.60;;
55655;SDS011;41530;52.382;5.270;2022-11-20T16:15:03;4.63;;;3.13;;
55655;SDS011;41530;52.382;5.270;2022-11-20T16:17:49;4.47;;;3.10;;
55655;SDS011;41530;52.382;5.270;2022-11-20T16:20:15;4.68;;;3.13;;
55655;SDS011;41530;52.382;5.270;2022-11-20T16:22:42;5.47;;;3.03;;
55655;SDS011;41530;52.382;5.270;2022-11-20T16:25:09;4.35;;;3.20;;
55655;SDS011;41530;52.382;5.270;2022-11-20T16:27:35;3.75;;;3.35;;
55655;SDS011;41530;52.382;5.270;2022-11-20T16:30:02;4.07;;;3.28;;
55655;SDS011;41530;52.382;5.270;2022-11-20T16:32:29;4.90;;;3.05;;
55655;SDS011;41530;52.382;5.270;2022-11-20T16:34:56;4.68;;;3.13;;
55655;SDS011;41530;52.382;5.270;2022-11-20T16:37:23;4.68;;;2.95;;
55655;SDS011;41530;52.382;5.270;2022-11-20T16:39:50;3.97;;;3.20;;
55655;SDS011;41530;52.382;5.270;2022-11-20T16:42:16;4.18;;;2.80;;
55655;SDS011;41530;52.382;5.270;2022-11-20T16:44:45;3.63;;;2.92;;
55655;SDS011;41530;52.382;5.270;2022-11-20T16:47:12;3.92;;;3.10;;
55655;SDS011;41530;52.382;5.270;2022-11-20T16:49:39;4.63;;;3.45;;